sensor_id;sensor_type;location;lat;lon;timestamp;temperature;humidity
11569;DHT22;5840;46.894;15.542;2023-10-08T00:02:23;16.60;99.90
11569;DHT22;5840;46.894;15.542;2023-10-08T00:04:52;16.60;99.90
11569;DHT22;5840;46.894;15.542;2023-10-08T00:07:20;16.50;99.90
11569;DHT22;5840;46.894;15.542;2023-10-08T00:09:48;16.50;99.90
11569;DHT22;5840;46.894;15.542;2023-10-08T00:12:16;16.50;99.90
11569;DHT22;5840;46.894;15.542;2023-10-08T00:14:45;16.60;99.90
11569;DHT22;5840;46.894;15.542;2023-10-08T00:17:16;16.60;99.90
11569;DHT22;5840;46.894;15.542;2023-10-08T00:19:44;16.50;99.90
11569;DHT22;5840;46.894;15.542;2023-10-08T00:22:11;16.50;99.90
11569;DHT22;5840;46.894;15.542;2023-10-08T00:24:39;16.60;99.90
11569;DHT22;5840;46.894;15.542;2023-10-08T00:27:08;16.50;99.90
11569;DHT22;5840;46.894;15.542;2023-10-08T00:29:34;16.60;99.90
11569;DHT22;5840;46.894;15.542;2023-10-08T00:32:05;16.60;99.90
11569;DHT22;5840;46.894;15.542;2023-10-08T00:34:39;16.60;99.90
11569;DHT22;5840;46.894;15.542;2023-10-08T00:37:09;16.60;99.90
11569;DHT22;5840;46.894;15.542;2023-10-08T00:39:37;16.60;99.90
11569;DHT22;5840;46.894;15.542;2023-10-08T00:42:05;16.60;99.90
11569;DHT22;5840;46.894;15.542;2023-10-08T00:44:33;16.60;99.90
11569;DHT22;5840;46.894;15.542;2023-10-08T00:47:07;16.50;99.90
11569;DHT22;5840;46.894;15.542;2023-10-08T00:49:37;16.50;99.90
11569;DHT22;5840;46.894;15.542;2023-10-08T00:52:21;16.30;99.90
11569;DHT22;5840;46.894;15.542;2023-10-08T00:55:04;16.20;99.90
11569;DHT22;5840;46.894;15.542;2023-10-08T00:57:35;16.10;99.90
11569;DHT22;5840;46.894;15.542;2023-10-08T01:00:09;16.00;99.90
11569;DHT22;5840;46.894;15.542;2023-10-08T01:02:43;16.00;99.90
11569;DHT22;5840;46.894;15.542;2023-10-08T01:05:12;16.00;99.90
11569;DHT22;5840;46.894;15.542;2023-10-08T01:07:46;16.00;99.90
11569;DHT22;5840;46.894;15.542;2023-10-08T01:10:16;15.90;99.90
11569;DHT22;5840;46.894;15.542;2023-10-08T01:12:46;15.80;99.90
11569;DHT22;5840;46.894;15.542;2023-10-08T01:15:29;15.80;99.90
11569;DHT22;5840;46.894;15.542;2023-10-08T01:18:01;15.70;99.90
11569;DHT22;5840;46.894;15.542;2023-10-08T01:20:30;15.70;99.90
11569;DHT22;5840;46.894;15.542;2023-10-08T01:23:04;15.70;99.90
11569;DHT22;5840;46.894;15.542;2023-10-08T01:25:38;15.70;99.90
11569;DHT22;5840;46.894;15.542;2023-10-08T01:28:06;15.70;99.90
11569;DHT22;5840;46.894;15.542;2023-10-08T01:30:41;15.70;99.90
11569;DHT22;5840;46.894;15.542;2023-10-08T01:33:13;15.70;99.90
11569;DHT22;5840;46.894;15.542;2023-10-08T01:35:41;15.70;99.90
11569;DHT22;5840;46.894;15.542;2023-10-08T01:38:10;15.70;99.90
11569;DHT22;5840;46.894;15.542;2023-10-08T01:40:40;15.70;99.90
11569;DHT22;5840;46.894;15.542;2023-10-08T01:43:07;15.60;99.90
11569;DHT22;5840;46.894;15.542;2023-10-08T01:45:36;15.60;99.90
11569;DHT22;5840;46.894;15.542;2023-10-08T01:48:06;15.60;99.90
11569;DHT22;5840;46.894;15.542;2023-10-08T01:50:35;15.50;99.90
11569;DHT22;5840;46.894;15.542;2023-10-08T01:53:03;15.40;99.90
11569;DHT22;5840;46.894;15.542;2023-10-08T01:55:35;15.30;99.90
11569;DHT22;5840;46.894;15.542;2023-10-08T01:58:15;15.20;99.90
11569;DHT22;5840;46.894;15.542;2023-10-08T02:00:43;15.10;99.90
11569;DHT22;5840;46.894;15.542;2023-10-08T02:03:12;14.90;99.90
11569;DHT22;5840;46.894;15.542;2023-10-08T02:05:41;14.80;99.90
11569;DHT22;5840;46.894;15.542;2023-10-08T02:08:09;14.80;99.90
11569;DHT22;5840;46.894;15.542;2023-10-08T02:10:38;14.70;99.90
11569;DHT22;5840;46.894;15.542;2023-10-08T02:13:07;14.70;99.90
11569;DHT22;5840;46.894;15.542;2023-10-08T02:15:35;14.60;99.90
11569;DHT22;5840;46.894;15.542;2023-10-08T02:18:04;14.60;99.90
11569;DHT22;5840;46.894;15.542;2023-10-08T02:20:32;14.50;99.90
11569;DHT22;5840;46.894;15.542;2023-10-08T02:22:59;14.50;99.90
11569;DHT22;5840;46.894;15.542;2023-10-08T02:25:26;14.50;99.90
11569;DHT22;5840;46.894;15.542;2023-10-08T02:27:55;14.50;99.90
11569;DHT22;5840;46.894;15.542;2023-10-08T02:30:23;14.50;99.90
11569;DHT22;5840;46.894;15.542;2023-10-08T02:32:50;14.50;99.90
11569;DHT22;5840;46.894;15.542;2023-10-08T02:35:18;14.40;99.90
11569;DHT22;5840;46.894;15.542;2023-10-08T02:37:45;14.40;99.90
11569;DHT22;5840;46.894;15.542;2023-10-08T02:40:12;14.40;99.90
11569;DHT22;5840;46.894;15.542;2023-10-08T02:42:46;14.40;99.90
11569;DHT22;5840;46.894;15.542;2023-10-08T02:45:15;14.40;99.90
11569;DHT22;5840;46.894;15.542;2023-10-08T02:47:42;14.40;99.90
11569;DHT22;5840;46.894;15.542;2023-10-08T02:50:11;14.40;99.90
11569;DHT22;5840;46.894;15.542;2023-10-08T02:52:42;14.30;99.90
11569;DHT22;5840;46.894;15.542;2023-10-08T02:55:11;14.40;99.90
11569;DHT22;5840;46.894;15.542;2023-10-08T02:57:49;14.30;99.90
11569;DHT22;5840;46.894;15.542;2023-10-08T03:00:19;14.40;99.90
11569;DHT22;5840;46.894;15.542;2023-10-08T03:02:46;14.30;99.90
11569;DHT22;5840;46.894;15.542;2023-10-08T03:05:13;14.30;99.90
11569;DHT22;5840;46.894;15.542;2023-10-08T03:07:43;14.40;99.90
11569;DHT22;5840;46.894;15.542;2023-10-08T03:10:10;14.30;99.90
11569;DHT22;5840;46.894;15.542;2023-10-08T03:12:45;14.30;99.90
11569;DHT22;5840;46.894;15.542;2023-10-08T03:15:14;14.40;99.90
11569;DHT22;5840;46.894;15.542;2023-10-08T03:17:55;14.30;99.90
11569;DHT22;5840;46.894;15.542;2023-10-08T03:20:23;14.30;99.90
11569;DHT22;5840;46.894;15.542;2023-10-08T03:23:04;14.30;99.90
11569;DHT22;5840;46.894;15.542;2023-10-08T03:25:37;14.30;99.90
11569;DHT22;5840;46.894;15.542;2023-10-08T03:28:07;14.30;99.90
11569;DHT22;5840;46.894;15.542;2023-10-08T03:30:38;14.20;99.90
11569;DHT22;5840;46.894;15.542;2023-10-08T03:33:16;14.20;99.90
11569;DHT22;5840;46.894;15.542;2023-10-08T03:35:48;14.20;99.90
11569;DHT22;5840;46.894;15.542;2023-10-08T03:38:18;14.20;99.90
11569;DHT22;5840;46.894;15.542;2023-10-08T03:40:54;14.10;99.90
11569;DHT22;5840;46.894;15.542;2023-10-08T03:43:24;14.10;99.90
11569;DHT22;5840;46.894;15.542;2023-10-08T03:45:59;14.10;99.90
11569;DHT22;5840;46.894;15.542;2023-10-08T03:48:32;14.10;99.90
11569;DHT22;5840;46.894;15.542;2023-10-08T03:51:02;14.10;99.90
11569;DHT22;5840;46.894;15.542;2023-10-08T03:53:37;14.00;99.90
11569;DHT22;5840;46.894;15.542;2023-10-08T03:56:23;14.00;99.90
11569;DHT22;5840;46.894;15.542;2023-10-08T03:58:50;13.90;99.90
11569;DHT22;5840;46.894;15.542;2023-10-08T04:01:20;13.90;99.90
11569;DHT22;5840;46.894;15.542;2023-10-08T04:03:48;13.90;99.90
11569;DHT22;5840;46.894;15.542;2023-10-08T04:06:29;13.90;99.90
11569;DHT22;5840;46.894;15.542;2023-10-08T04:09:04;13.90;99.90
11569;DHT22;5840;46.894;15.542;2023-10-08T04:11:50;13.90;99.90
11569;DHT22;5840;46.894;15.542;2023-10-08T04:14:22;13.90;99.90
11569;DHT22;5840;46.894;15.542;2023-10-08T04:16:49;13.90;99.90
11569;DHT22;5840;46.894;15.542;2023-10-08T04:19:19;13.90;99.90
11569;DHT22;5840;46.894;15.542;2023-10-08T04:21:51;14.00;99.90
11569;DHT22;5840;46.894;15.542;2023-10-08T04:24:21;14.00;99.90
11569;DHT22;5840;46.894;15.542;2023-10-08T04:26:55;14.10;99.90
11569;DHT22;5840;46.894;15.542;2023-10-08T04:29:23;14.10;99.90
11569;DHT22;5840;46.894;15.542;2023-10-08T04:31:51;14.10;99.90
11569;DHT22;5840;46.894;15.542;2023-10-08T04:34:29;14.20;99.90
11569;DHT22;5840;46.894;15.542;2023-10-08T04:36:58;14.20;99.90
11569;DHT22;5840;46.894;15.542;2023-10-08T04:39:30;14.20;99.90
11569;DHT22;5840;46.894;15.542;2023-10-08T04:42:00;14.30;99.90
11569;DHT22;5840;46.894;15.542;2023-10-08T04:44:32;14.20;99.90
11569;DHT22;5840;46.894;15.542;2023-10-08T04:46:59;14.20;99.90
11569;DHT22;5840;46.894;15.542;2023-10-08T04:49:33;14.10;99.90
11569;DHT22;5840;46.894;15.542;2023-10-08T04:52:05;14.10;99.90
11569;DHT22;5840;46.894;15.542;2023-10-08T04:54:39;14.10;99.90
11569;DHT22;5840;46.894;15.542;2023-10-08T04:57:07;14.00;99.90
11569;DHT22;5840;46.894;15.542;2023-10-08T04:59:41;14.00;99.90
11569;DHT22;5840;46.894;15.542;2023-10-08T05:02:09;13.90;99.90
11569;DHT22;5840;46.894;15.542;2023-10-08T05:05:00;13.90;99.90
11569;DHT22;5840;46.894;15.542;2023-10-08T05:07:48;13.80;99.90
11569;DHT22;5840;46.894;15.542;2023-10-08T05:10:34;13.80;99.90
11569;DHT22;5840;46.894;15.542;2023-10-08T05:13:19;13.70;99.90
11569;DHT22;5840;46.894;15.542;2023-10-08T05:15:56;13.70;99.90
11569;DHT22;5840;46.894;15.542;2023-10-08T05:18:31;13.70;99.90
11569;DHT22;5840;46.894;15.542;2023-10-08T05:21:14;13.80;99.90
11569;DHT22;5840;46.894;15.542;2023-10-08T05:23:51;13.80;99.90
11569;DHT22;5840;46.894;15.542;2023-10-08T05:26:39;13.80;99.90
11569;DHT22;5840;46.894;15.542;2023-10-08T05:29:10;13.80;99.90
11569;DHT22;5840;46.894;15.542;2023-10-08T05:32:15;13.90;99.90
11569;DHT22;5840;46.894;15.542;2023-10-08T05:35:04;14.00;99.90
11569;DHT22;5840;46.894;15.542;2023-10-08T05:37:46;14.20;99.90
11569;DHT22;5840;46.894;15.542;2023-10-08T05:40:17;14.30;99.90
11569;DHT22;5840;46.894;15.542;2023-10-08T05:43:19;14.30;99.90
11569;DHT22;5840;46.894;15.542;2023-10-08T05:46:11;14.40;99.90
11569;DHT22;5840;46.894;15.542;2023-10-08T05:49:04;14.40;99.90
11569;DHT22;5840;46.894;15.542;2023-10-08T05:51:52;14.40;99.90
11569;DHT22;5840;46.894;15.542;2023-10-08T05:54:38;14.40;99.90
11569;DHT22;5840;46.894;15.542;2023-10-08T05:57:23;14.40;99.90
11569;DHT22;5840;46.894;15.542;2023-10-08T06:00:05;14.30;99.90
11569;DHT22;5840;46.894;15.542;2023-10-08T06:03:12;14.30;99.90
11569;DHT22;5840;46.894;15.542;2023-10-08T06:05:53;14.20;99.90
11569;DHT22;5840;46.894;15.542;2023-10-08T06:08:43;14.10;99.90
11569;DHT22;5840;46.894;15.542;2023-10-08T06:11:19;14.20;99.90
11569;DHT22;5840;46.894;15.542;2023-10-08T06:14:03;14.20;99.90
11569;DHT22;5840;46.894;15.542;2023-10-08T06:16:39;14.20;99.90
11569;DHT22;5840;46.894;15.542;2023-10-08T06:19:10;14.30;99.90
11569;DHT22;5840;46.894;15.542;2023-10-08T06:21:37;14.30;99.90
11569;DHT22;5840;46.894;15.542;2023-10-08T06:24:05;14.40;99.90
11569;DHT22;5840;46.894;15.542;2023-10-08T06:26:37;14.40;99.90
11569;DHT22;5840;46.894;15.542;2023-10-08T06:29:09;14.40;99.90
11569;DHT22;5840;46.894;15.542;2023-10-08T06:31:45;14.40;99.90
11569;DHT22;5840;46.894;15.542;2023-10-08T06:34:17;14.50;99.90
11569;DHT22;5840;46.894;15.542;2023-10-08T06:36:47;14.50;99.90
11569;DHT22;5840;46.894;15.542;2023-10-08T06:39:19;14.60;99.90
11569;DHT22;5840;46.894;15.542;2023-10-08T06:41:53;14.50;99.90
11569;DHT22;5840;46.894;15.542;2023-10-08T06:44:22;14.50;99.90
11569;DHT22;5840;46.894;15.542;2023-10-08T06:46:49;14.50;99.90
11569;DHT22;5840;46.894;15.542;2023-10-08T06:49:18;14.60;99.90
11569;DHT22;5840;46.894;15.542;2023-10-08T06:51:50;14.70;99.90
11569;DHT22;5840;46.894;15.542;2023-10-08T06:54:17;14.70;99.90
11569;DHT22;5840;46.894;15.542;2023-10-08T06:56:44;14.80;99.90
11569;DHT22;5840;46.894;15.542;2023-10-08T06:59:18;14.80;99.90
11569;DHT22;5840;46.894;15.542;2023-10-08T07:01:48;14.90;99.90
11569;DHT22;5840;46.894;15.542;2023-10-08T07:04:17;15.00;99.90
11569;DHT22;5840;46.894;15.542;2023-10-08T07:06:45;15.00;99.90
11569;DHT22;5840;46.894;15.542;2023-10-08T07:09:13;15.10;99.90
11569;DHT22;5840;46.894;15.542;2023-10-08T07:11:49;15.10;99.90
11569;DHT22;5840;46.894;15.542;2023-10-08T07:14:22;15.20;99.90
11569;DHT22;5840;46.894;15.542;2023-10-08T07:16:53;15.20;99.90
11569;DHT22;5840;46.894;15.542;2023-10-08T07:19:21;15.20;99.90
11569;DHT22;5840;46.894;15.542;2023-10-08T07:21:58;15.20;99.90
11569;DHT22;5840;46.894;15.542;2023-10-08T07:24:29;15.30;99.90
11569;DHT22;5840;46.894;15.542;2023-10-08T07:26:57;15.40;99.90
11569;DHT22;5840;46.894;15.542;2023-10-08T07:29:26;15.40;99.90
11569;DHT22;5840;46.894;15.542;2023-10-08T07:31:54;15.50;99.90
11569;DHT22;5840;46.894;15.542;2023-10-08T07:34:21;15.50;99.90
11569;DHT22;5840;46.894;15.542;2023-10-08T07:36:54;15.60;99.90
11569;DHT22;5840;46.894;15.542;2023-10-08T07:39:22;15.70;99.90
11569;DHT22;5840;46.894;15.542;2023-10-08T07:41:53;15.80;99.90
11569;DHT22;5840;46.894;15.542;2023-10-08T07:44:21;15.90;99.90
11569;DHT22;5840;46.894;15.542;2023-10-08T07:46:51;16.00;99.90
11569;DHT22;5840;46.894;15.542;2023-10-08T07:49:20;16.00;99.90
11569;DHT22;5840;46.894;15.542;2023-10-08T07:51:48;16.10;99.90
11569;DHT22;5840;46.894;15.542;2023-10-08T07:54:17;16.10;99.90
11569;DHT22;5840;46.894;15.542;2023-10-08T07:56:46;16.10;99.90
11569;DHT22;5840;46.894;15.542;2023-10-08T07:59:14;16.00;99.90
11569;DHT22;5840;46.894;15.542;2023-10-08T08:01:42;15.90;99.90
11569;DHT22;5840;46.894;15.542;2023-10-08T08:04:11;15.80;99.90
11569;DHT22;5840;46.894;15.542;2023-10-08T08:06:47;15.70;99.90
11569;DHT22;5840;46.894;15.542;2023-10-08T08:09:16;15.80;99.90
11569;DHT22;5840;46.894;15.542;2023-10-08T08:11:45;15.80;99.90
11569;DHT22;5840;46.894;15.542;2023-10-08T08:14:13;15.90;99.90
11569;DHT22;5840;46.894;15.542;2023-10-08T08:16:43;16.00;99.90
11569;DHT22;5840;46.894;15.542;2023-10-08T08:19:15;16.10;99.90
11569;DHT22;5840;46.894;15.542;2023-10-08T08:21:43;16.20;99.90
11569;DHT22;5840;46.894;15.542;2023-10-08T08:24:12;16.20;99.90
11569;DHT22;5840;46.894;15.542;2023-10-08T08:26:40;16.30;99.90
11569;DHT22;5840;46.894;15.542;2023-10-08T08:29:26;16.30;99.90
11569;DHT22;5840;46.894;15.542;2023-10-08T08:31:54;16.40;99.90
11569;DHT22;5840;46.894;15.542;2023-10-08T08:34:24;16.40;99.90
11569;DHT22;5840;46.894;15.542;2023-10-08T08:36:50;16.40;99.90
11569;DHT22;5840;46.894;15.542;2023-10-08T08:39:18;16.50;99.90
11569;DHT22;5840;46.894;15.542;2023-10-08T08:41:59;16.50;99.90
11569;DHT22;5840;46.894;15.542;2023-10-08T08:44:31;16.50;99.90
11569;DHT22;5840;46.894;15.542;2023-10-08T08:47:00;16.60;99.90
11569;DHT22;5840;46.894;15.542;2023-10-08T08:49:32;16.60;99.90
11569;DHT22;5840;46.894;15.542;2023-10-08T08:52:03;16.70;99.90
11569;DHT22;5840;46.894;15.542;2023-10-08T08:54:30;16.80;99.90
11569;DHT22;5840;46.894;15.542;2023-10-08T08:56:59;16.80;99.90
11569;DHT22;5840;46.894;15.542;2023-10-08T08:59:29;16.90;99.90
11569;DHT22;5840;46.894;15.542;2023-10-08T09:01:57;17.00;99.90
11569;DHT22;5840;46.894;15.542;2023-10-08T09:04:28;17.10;99.90
11569;DHT22;5840;46.894;15.542;2023-10-08T09:06:58;17.20;99.90
11569;DHT22;5840;46.894;15.542;2023-10-08T09:09:33;17.30;99.90
11569;DHT22;5840;46.894;15.542;2023-10-08T09:12:01;17.40;99.90
11569;DHT22;5840;46.894;15.542;2023-10-08T09:14:31;17.50;99.90
11569;DHT22;5840;46.894;15.542;2023-10-08T09:17:00;17.60;99.90
11569;DHT22;5840;46.894;15.542;2023-10-08T09:19:30;17.70;99.90
11569;DHT22;5840;46.894;15.542;2023-10-08T09:22:05;17.80;99.90
11569;DHT22;5840;46.894;15.542;2023-10-08T09:24:33;17.90;99.90
11569;DHT22;5840;46.894;15.542;2023-10-08T09:27:02;18.00;99.90
11569;DHT22;5840;46.894;15.542;2023-10-08T09:29:30;18.10;99.90
11569;DHT22;5840;46.894;15.542;2023-10-08T09:31:58;18.10;99.90
11569;DHT22;5840;46.894;15.542;2023-10-08T09:34:29;18.20;99.90
11569;DHT22;5840;46.894;15.542;2023-10-08T09:36:57;18.30;99.90
11569;DHT22;5840;46.894;15.542;2023-10-08T09:39:27;18.30;99.90
11569;DHT22;5840;46.894;15.542;2023-10-08T09:42:01;18.40;99.90
11569;DHT22;5840;46.894;15.542;2023-10-08T09:44:30;18.50;99.90
11569;DHT22;5840;46.894;15.542;2023-10-08T09:47:02;18.50;99.90
11569;DHT22;5840;46.894;15.542;2023-10-08T09:49:31;18.60;99.90
11569;DHT22;5840;46.894;15.542;2023-10-08T09:52:01;18.70;99.90
11569;DHT22;5840;46.894;15.542;2023-10-08T09:54:31;18.80;99.90
11569;DHT22;5840;46.894;15.542;2023-10-08T09:57:05;18.80;99.90
11569;DHT22;5840;46.894;15.542;2023-10-08T09:59:33;18.90;99.90
11569;DHT22;5840;46.894;15.542;2023-10-08T10:02:01;19.00;99.90
11569;DHT22;5840;46.894;15.542;2023-10-08T10:04:30;19.10;99.90
11569;DHT22;5840;46.894;15.542;2023-10-08T10:06:58;19.10;99.90
11569;DHT22;5840;46.894;15.542;2023-10-08T10:09:26;19.20;99.90
11569;DHT22;5840;46.894;15.542;2023-10-08T10:11:55;19.40;99.90
11569;DHT22;5840;46.894;15.542;2023-10-08T10:14:23;19.50;99.90
11569;DHT22;5840;46.894;15.542;2023-10-08T10:17:13;19.50;99.90
11569;DHT22;5840;46.894;15.542;2023-10-08T10:19:42;19.60;99.90
11569;DHT22;5840;46.894;15.542;2023-10-08T10:22:14;19.70;99.90
11569;DHT22;5840;46.894;15.542;2023-10-08T10:24:42;19.80;99.90
11569;DHT22;5840;46.894;15.542;2023-10-08T10:27:13;19.90;99.90
11569;DHT22;5840;46.894;15.542;2023-10-08T10:29:41;20.00;99.90
11569;DHT22;5840;46.894;15.542;2023-10-08T10:32:11;20.10;99.90
11569;DHT22;5840;46.894;15.542;2023-10-08T10:34:41;20.10;99.90
11569;DHT22;5840;46.894;15.542;2023-10-08T10:37:08;20.20;99.90
11569;DHT22;5840;46.894;15.542;2023-10-08T10:39:51;20.20;99.90
11569;DHT22;5840;46.894;15.542;2023-10-08T10:42:22;20.30;99.90
11569;DHT22;5840;46.894;15.542;2023-10-08T10:44:50;20.50;99.90
11569;DHT22;5840;46.894;15.542;2023-10-08T10:47:19;20.60;99.90
11569;DHT22;5840;46.894;15.542;2023-10-08T10:50:08;20.80;99.90
11569;DHT22;5840;46.894;15.542;2023-10-08T10:52:52;21.00;99.90
11569;DHT22;5840;46.894;15.542;2023-10-08T10:55:19;21.10;99.90
11569;DHT22;5840;46.894;15.542;2023-10-08T10:57:51;21.30;99.90
11569;DHT22;5840;46.894;15.542;2023-10-08T11:00:22;21.40;99.90
11569;DHT22;5840;46.894;15.542;2023-10-08T11:03:07;21.50;99.90
11569;DHT22;5840;46.894;15.542;2023-10-08T11:05:42;21.70;99.90
11569;DHT22;5840;46.894;15.542;2023-10-08T11:08:14;21.80;99.90
11569;DHT22;5840;46.894;15.542;2023-10-08T11:10:44;21.90;99.90
11569;DHT22;5840;46.894;15.542;2023-10-08T11:13:16;22.00;99.90
11569;DHT22;5840;46.894;15.542;2023-10-08T11:15:46;22.20;99.90
11569;DHT22;5840;46.894;15.542;2023-10-08T11:18:19;22.30;99.90
11569;DHT22;5840;46.894;15.542;2023-10-08T11:20:47;22.50;99.90
11569;DHT22;5840;46.894;15.542;2023-10-08T11:23:33;22.70;99.90
11569;DHT22;5840;46.894;15.542;2023-10-08T11:26:03;22.90;99.90
11569;DHT22;5840;46.894;15.542;2023-10-08T11:28:34;23.10;99.90
11569;DHT22;5840;46.894;15.542;2023-10-08T11:31:03;23.30;99.90
11569;DHT22;5840;46.894;15.542;2023-10-08T11:33:35;23.50;99.90
11569;DHT22;5840;46.894;15.542;2023-10-08T11:36:04;23.60;98.60
11569;DHT22;5840;46.894;15.542;2023-10-08T11:38:39;23.70;99.30
11569;DHT22;5840;46.894;15.542;2023-10-08T11:41:11;23.70;99.60
11569;DHT22;5840;46.894;15.542;2023-10-08T11:43:48;23.70;98.90
11569;DHT22;5840;46.894;15.542;2023-10-08T11:46:20;23.80;98.40
11569;DHT22;5840;46.894;15.542;2023-10-08T11:48:47;23.80;99.90
11569;DHT22;5840;46.894;15.542;2023-10-08T11:51:16;23.80;98.40
11569;DHT22;5840;46.894;15.542;2023-10-08T11:53:43;23.80;97.00
11569;DHT22;5840;46.894;15.542;2023-10-08T11:56:11;23.80;98.40
11569;DHT22;5840;46.894;15.542;2023-10-08T11:58:40;23.80;99.60
11569;DHT22;5840;46.894;15.542;2023-10-08T12:01:11;23.80;99.90
11569;DHT22;5840;46.894;15.542;2023-10-08T12:03:41;23.80;97.80
11569;DHT22;5840;46.894;15.542;2023-10-08T12:06:09;23.90;98.30
11569;DHT22;5840;46.894;15.542;2023-10-08T12:08:41;23.90;99.40
11569;DHT22;5840;46.894;15.542;2023-10-08T12:11:11;23.90;99.80
11569;DHT22;5840;46.894;15.542;2023-10-08T12:13:38;23.90;99.70
11569;DHT22;5840;46.894;15.542;2023-10-08T12:16:11;23.90;99.90
11569;DHT22;5840;46.894;15.542;2023-10-08T12:18:44;23.90;99.90
11569;DHT22;5840;46.894;15.542;2023-10-08T12:21:14;23.90;99.90
11569;DHT22;5840;46.894;15.542;2023-10-08T12:23:42;23.90;99.50
11569;DHT22;5840;46.894;15.542;2023-10-08T12:26:11;23.90;99.50
11569;DHT22;5840;46.894;15.542;2023-10-08T12:28:42;23.90;99.70
11569;DHT22;5840;46.894;15.542;2023-10-08T12:31:12;24.00;99.30
11569;DHT22;5840;46.894;15.542;2023-10-08T12:33:41;24.00;99.60
11569;DHT22;5840;46.894;15.542;2023-10-08T12:36:10;24.10;99.40
11569;DHT22;5840;46.894;15.542;2023-10-08T12:38:38;24.00;99.80
11569;DHT22;5840;46.894;15.542;2023-10-08T12:41:07;24.10;98.90
11569;DHT22;5840;46.894;15.542;2023-10-08T12:43:40;24.10;99.30
11569;DHT22;5840;46.894;15.542;2023-10-08T12:46:12;24.10;98.40
11569;DHT22;5840;46.894;15.542;2023-10-08T12:48:51;24.10;98.30
11569;DHT22;5840;46.894;15.542;2023-10-08T12:51:20;24.10;98.50
11569;DHT22;5840;46.894;15.542;2023-10-08T12:53:49;24.20;99.10
11569;DHT22;5840;46.894;15.542;2023-10-08T12:56:24;24.20;98.90
11569;DHT22;5840;46.894;15.542;2023-10-08T12:58:58;24.20;98.90
11569;DHT22;5840;46.894;15.542;2023-10-08T13:01:27;24.30;98.40
11569;DHT22;5840;46.894;15.542;2023-10-08T13:03:56;24.30;99.50
11569;DHT22;5840;46.894;15.542;2023-10-08T13:06:28;24.30;99.20
11569;DHT22;5840;46.894;15.542;2023-10-08T13:08:57;24.30;99.40
11569;DHT22;5840;46.894;15.542;2023-10-08T13:11:27;24.30;99.60
11569;DHT22;5840;46.894;15.542;2023-10-08T13:13:57;24.40;99.40
11569;DHT22;5840;46.894;15.542;2023-10-08T13:16:27;24.40;99.90
11569;DHT22;5840;46.894;15.542;2023-10-08T13:18:58;24.40;99.50
11569;DHT22;5840;46.894;15.542;2023-10-08T13:21:28;24.30;99.10
11569;DHT22;5840;46.894;15.542;2023-10-08T13:23:58;24.30;98.50
11569;DHT22;5840;46.894;15.542;2023-10-08T13:26:30;24.20;98.30
11569;DHT22;5840;46.894;15.542;2023-10-08T13:28:59;24.20;97.50
11569;DHT22;5840;46.894;15.542;2023-10-08T13:31:29;24.20;97.10
11569;DHT22;5840;46.894;15.542;2023-10-08T13:34:02;24.10;97.00
11569;DHT22;5840;46.894;15.542;2023-10-08T13:36:35;24.10;96.50
11569;DHT22;5840;46.894;15.542;2023-10-08T13:39:06;24.10;95.90
11569;DHT22;5840;46.894;15.542;2023-10-08T13:41:36;24.10;96.40
11569;DHT22;5840;46.894;15.542;2023-10-08T13:44:08;24.10;95.90
11569;DHT22;5840;46.894;15.542;2023-10-08T13:46:40;24.20;96.20
11569;DHT22;5840;46.894;15.542;2023-10-08T13:49:15;24.30;96.00
11569;DHT22;5840;46.894;15.542;2023-10-08T13:51:45;24.30;95.80
11569;DHT22;5840;46.894;15.542;2023-10-08T13:54:22;24.40;94.90
11569;DHT22;5840;46.894;15.542;2023-10-08T13:56:52;24.40;95.10
11569;DHT22;5840;46.894;15.542;2023-10-08T13:59:21;24.30;95.10
11569;DHT22;5840;46.894;15.542;2023-10-08T14:01:52;24.30;95.80
11569;DHT22;5840;46.894;15.542;2023-10-08T14:04:23;24.20;94.50
11569;DHT22;5840;46.894;15.542;2023-10-08T14:06:56;24.20;93.90
11569;DHT22;5840;46.894;15.542;2023-10-08T14:09:25;24.10;94.00
11569;DHT22;5840;46.894;15.542;2023-10-08T14:12:03;24.00;94.50
11569;DHT22;5840;46.894;15.542;2023-10-08T14:14:33;23.90;94.90
11569;DHT22;5840;46.894;15.542;2023-10-08T14:17:03;23.80;94.40
11569;DHT22;5840;46.894;15.542;2023-10-08T14:19:32;23.80;94.70
11569;DHT22;5840;46.894;15.542;2023-10-08T14:22:06;23.70;94.60
11569;DHT22;5840;46.894;15.542;2023-10-08T14:24:40;23.60;94.50
11569;DHT22;5840;46.894;15.542;2023-10-08T14:27:12;23.60;94.00
11569;DHT22;5840;46.894;15.542;2023-10-08T14:29:42;23.50;94.10
11569;DHT22;5840;46.894;15.542;2023-10-08T14:32:14;23.40;94.80
11569;DHT22;5840;46.894;15.542;2023-10-08T14:34:44;23.30;95.30
11569;DHT22;5840;46.894;15.542;2023-10-08T14:37:29;23.20;96.30
11569;DHT22;5840;46.894;15.542;2023-10-08T14:40:15;22.90;97.80
11569;DHT22;5840;46.894;15.542;2023-10-08T14:43:00;22.50;99.30
11569;DHT22;5840;46.894;15.542;2023-10-08T14:45:31;21.80;99.10
11569;DHT22;5840;46.894;15.542;2023-10-08T14:48:03;21.10;99.70
11569;DHT22;5840;46.894;15.542;2023-10-08T14:50:37;20.40;99.90
11569;DHT22;5840;46.894;15.542;2023-10-08T14:53:07;19.90;99.90
11569;DHT22;5840;46.894;15.542;2023-10-08T14:55:36;19.70;99.90
11569;DHT22;5840;46.894;15.542;2023-10-08T14:58:07;19.40;99.90
11569;DHT22;5840;46.894;15.542;2023-10-08T15:00:37;19.10;99.90
11569;DHT22;5840;46.894;15.542;2023-10-08T15:03:10;18.90;99.90
11569;DHT22;5840;46.894;15.542;2023-10-08T15:05:39;18.70;99.90
11569;DHT22;5840;46.894;15.542;2023-10-08T15:08:08;18.60;99.90
11569;DHT22;5840;46.894;15.542;2023-10-08T15:10:37;18.50;99.90
11569;DHT22;5840;46.894;15.542;2023-10-08T15:13:07;18.40;99.90
11569;DHT22;5840;46.894;15.542;2023-10-08T15:15:38;18.30;99.90
11569;DHT22;5840;46.894;15.542;2023-10-08T15:18:10;18.20;99.90
11569;DHT22;5840;46.894;15.542;2023-10-08T15:20:41;18.10;99.90
11569;DHT22;5840;46.894;15.542;2023-10-08T15:23:09;18.00;99.90
11569;DHT22;5840;46.894;15.542;2023-10-08T15:25:39;17.90;99.90
11569;DHT22;5840;46.894;15.542;2023-10-08T15:28:08;17.80;99.90
11569;DHT22;5840;46.894;15.542;2023-10-08T15:30:37;17.80;99.90
11569;DHT22;5840;46.894;15.542;2023-10-08T15:33:06;17.70;99.90
11569;DHT22;5840;46.894;15.542;2023-10-08T15:35:37;17.70;99.90
11569;DHT22;5840;46.894;15.542;2023-10-08T15:38:07;17.60;99.90
11569;DHT22;5840;46.894;15.542;2023-10-08T15:40:35;17.50;99.90
11569;DHT22;5840;46.894;15.542;2023-10-08T15:43:06;17.20;99.90
11569;DHT22;5840;46.894;15.542;2023-10-08T15:45:34;17.10;99.90
11569;DHT22;5840;46.894;15.542;2023-10-08T15:48:04;16.90;99.90
11569;DHT22;5840;46.894;15.542;2023-10-08T15:50:36;16.80;99.90
11569;DHT22;5840;46.894;15.542;2023-10-08T15:53:06;16.60;99.90
11569;DHT22;5840;46.894;15.542;2023-10-08T15:55:34;16.50;99.90
11569;DHT22;5840;46.894;15.542;2023-10-08T15:58:04;16.30;99.90
11569;DHT22;5840;46.894;15.542;2023-10-08T16:00:33;16.30;99.90